Alamo Heights, Texas
Current Conditions -  °F | °C
As of 8:51 AM on Saturday 20 Dec 2014 (Local Time) from KSAT Reporting Station
Overcast Overcast  
Wind Chill: 50°   Ceiling: 1500
Heat Index: 50°   Visibility: 10mi
Dew Point: 43°   Wind: 8mph
Humidity: 77%   Direction: 40°NE
Pressure: 30.23"   Gusts: NA
Location:  29.4797°N, 98.4508°W
Report Text: KSAT 201451Z 04007KT 10SM OVC015 10/06 A3023 RMK AO2 SLP227 T01000061 50009
Loading
Personal Weather Stations






























Interactive Weather Map New forecast layout! Learn more

10-Day Weather Forecast

Advertisements
Track Severe Weather on mobile